sensor_id;sensor_type;location;lat;lon;timestamp;temperature;humidity
1614;DHT22;800;48.824;9.346;2023-02-18T00:01:30;16.60;57.20
1614;DHT22;800;48.824;9.346;2023-02-18T00:03:57;16.50;57.00
1614;DHT22;800;48.824;9.346;2023-02-18T00:06:28;16.30;57.30
1614;DHT22;800;48.824;9.346;2023-02-18T00:08:54;16.00;57.60
1614;DHT22;800;48.824;9.346;2023-02-18T00:11:23;15.90;58.70
1614;DHT22;800;48.824;9.346;2023-02-18T00:13:51;15.80;58.50
1614;DHT22;800;48.824;9.346;2023-02-18T00:16:16;15.90;58.60
1614;DHT22;800;48.824;9.346;2023-02-18T00:18:42;15.90;58.60
1614;DHT22;800;48.824;9.346;2023-02-18T00:21:08;15.80;58.80
1614;DHT22;800;48.824;9.346;2023-02-18T00:23:34;15.70;59.10
1614;DHT22;800;48.824;9.346;2023-02-18T00:26:08;16.00;59.10
1614;DHT22;800;48.824;9.346;2023-02-18T00:28:35;16.00;58.60
1614;DHT22;800;48.824;9.346;2023-02-18T00:31:11;15.90;58.60
1614;DHT22;800;48.824;9.346;2023-02-18T00:33:37;16.00;58.70
1614;DHT22;800;48.824;9.346;2023-02-18T00:36:05;16.00;58.60
1614;DHT22;800;48.824;9.346;2023-02-18T00:38:32;15.90;58.60
1614;DHT22;800;48.824;9.346;2023-02-18T00:40:58;16.10;58.60
1614;DHT22;800;48.824;9.346;2023-02-18T00:43:24;16.20;58.20
1614;DHT22;800;48.824;9.346;2023-02-18T00:45:49;16.10;58.10
1614;DHT22;800;48.824;9.346;2023-02-18T00:48:15;16.20;58.20
1614;DHT22;800;48.824;9.346;2023-02-18T00:50:41;16.20;58.20
1614;DHT22;800;48.824;9.346;2023-02-18T00:53:06;16.20;58.00
1614;DHT22;800;48.824;9.346;2023-02-18T00:55:37;16.00;58.20
1614;DHT22;800;48.824;9.346;2023-02-18T00:58:03;16.30;58.30
1614;DHT22;800;48.824;9.346;2023-02-18T01:00:28;16.60;57.90
1614;DHT22;800;48.824;9.346;2023-02-18T01:02:54;16.70;57.70
1614;DHT22;800;48.824;9.346;2023-02-18T01:05:20;16.70;57.40
1614;DHT22;800;48.824;9.346;2023-02-18T01:07:45;16.80;57.10
1614;DHT22;800;48.824;9.346;2023-02-18T01:10:11;17.00;56.80
1614;DHT22;800;48.824;9.346;2023-02-18T01:12:37;17.00;56.50
1614;DHT22;800;48.824;9.346;2023-02-18T01:15:04;17.00;56.40
1614;DHT22;800;48.824;9.346;2023-02-18T01:17:31;16.90;56.70
1614;DHT22;800;48.824;9.346;2023-02-18T01:19:57;17.10;56.30
1614;DHT22;800;48.824;9.346;2023-02-18T01:22:22;16.90;56.50
1614;DHT22;800;48.824;9.346;2023-02-18T01:24:48;17.20;56.20
1614;DHT22;800;48.824;9.346;2023-02-18T01:27:13;17.00;56.00
1614;DHT22;800;48.824;9.346;2023-02-18T01:29:39;16.80;56.50
1614;DHT22;800;48.824;9.346;2023-02-18T01:32:05;17.10;56.20
1614;DHT22;800;48.824;9.346;2023-02-18T01:34:30;17.10;55.90
1614;DHT22;800;48.824;9.346;2023-02-18T01:36:56;17.00;56.10
1614;DHT22;800;48.824;9.346;2023-02-18T01:39:21;17.10;56.10
1614;DHT22;800;48.824;9.346;2023-02-18T01:41:47;16.90;56.10
1614;DHT22;800;48.824;9.346;2023-02-18T01:44:21;16.40;56.50
1614;DHT22;800;48.824;9.346;2023-02-18T01:46:47;16.40;57.50
1614;DHT22;800;48.824;9.346;2023-02-18T01:49:34;16.40;57.50
1614;DHT22;800;48.824;9.346;2023-02-18T01:52:05;16.30;57.60
1614;DHT22;800;48.824;9.346;2023-02-18T01:54:37;16.30;57.70
1614;DHT22;800;48.824;9.346;2023-02-18T01:57:40;16.20;57.80
1614;DHT22;800;48.824;9.346;2023-02-18T02:00:06;16.30;57.80
1614;DHT22;800;48.824;9.346;2023-02-18T02:02:34;16.50;57.60
1614;DHT22;800;48.824;9.346;2023-02-18T02:05:02;16.70;57.10
1614;DHT22;800;48.824;9.346;2023-02-18T02:07:28;16.90;56.70
1614;DHT22;800;48.824;9.346;2023-02-18T02:09:55;17.00;56.50
1614;DHT22;800;48.824;9.346;2023-02-18T02:20:53;16.40;56.80
1614;DHT22;800;48.824;9.346;2023-02-18T02:37:43;17.10;55.50
1614;DHT22;800;48.824;9.346;2023-02-18T02:40:59;17.20;55.40
1614;DHT22;800;48.824;9.346;2023-02-18T02:46:17;17.10;55.50
1614;DHT22;800;48.824;9.346;2023-02-18T02:54:29;17.10;55.50
1614;DHT22;800;48.824;9.346;2023-02-18T02:59:41;17.40;55.20
1614;DHT22;800;48.824;9.346;2023-02-18T03:10:45;17.40;55.40
1614;DHT22;800;48.824;9.346;2023-02-18T03:13:43;17.30;55.40
1614;DHT22;800;48.824;9.346;2023-02-18T03:16:29;17.40;55.50
1614;DHT22;800;48.824;9.346;2023-02-18T03:19:31;17.40;55.40
1614;DHT22;800;48.824;9.346;2023-02-18T03:24:38;17.30;55.40
1614;DHT22;800;48.824;9.346;2023-02-18T03:27:19;17.30;55.40
1614;DHT22;800;48.824;9.346;2023-02-18T03:29:50;17.30;55.50
1614;DHT22;800;48.824;9.346;2023-02-18T03:32:19;17.30;55.80
1614;DHT22;800;48.824;9.346;2023-02-18T03:34:49;17.30;55.90
1614;DHT22;800;48.824;9.346;2023-02-18T03:37:17;17.10;55.80
1614;DHT22;800;48.824;9.346;2023-02-18T03:39:45;17.10;56.10
1614;DHT22;800;48.824;9.346;2023-02-18T03:42:14;16.90;56.40
1614;DHT22;800;48.824;9.346;2023-02-18T03:44:40;16.80;56.50
1614;DHT22;800;48.824;9.346;2023-02-18T03:47:05;16.90;56.60
1614;DHT22;800;48.824;9.346;2023-02-18T03:49:31;16.90;56.60
1614;DHT22;800;48.824;9.346;2023-02-18T03:51:56;16.90;56.50
1614;DHT22;800;48.824;9.346;2023-02-18T03:54:22;17.00;56.50
1614;DHT22;800;48.824;9.346;2023-02-18T03:56:48;16.90;56.50
1614;DHT22;800;48.824;9.346;2023-02-18T03:59:13;17.00;56.50
1614;DHT22;800;48.824;9.346;2023-02-18T04:01:39;17.00;56.40
1614;DHT22;800;48.824;9.346;2023-02-18T04:04:05;17.00;56.50
1614;DHT22;800;48.824;9.346;2023-02-18T04:06:31;16.90;56.60
1614;DHT22;800;48.824;9.346;2023-02-18T04:08:56;16.80;56.70
1614;DHT22;800;48.824;9.346;2023-02-18T04:11:22;16.70;57.00
1614;DHT22;800;48.824;9.346;2023-02-18T04:13:47;16.70;57.00
1614;DHT22;800;48.824;9.346;2023-02-18T04:16:13;16.70;57.00
1614;DHT22;800;48.824;9.346;2023-02-18T04:18:39;16.50;57.10
1614;DHT22;800;48.824;9.346;2023-02-18T04:21:05;16.40;57.60
1614;DHT22;800;48.824;9.346;2023-02-18T04:23:30;16.40;57.60
1614;DHT22;800;48.824;9.346;2023-02-18T04:25:56;16.40;57.60
1614;DHT22;800;48.824;9.346;2023-02-18T04:28:22;16.50;57.60
1614;DHT22;800;48.824;9.346;2023-02-18T04:30:47;16.60;57.30
1614;DHT22;800;48.824;9.346;2023-02-18T04:33:13;16.60;57.00
1614;DHT22;800;48.824;9.346;2023-02-18T04:35:39;16.70;57.00
1614;DHT22;800;48.824;9.346;2023-02-18T04:38:06;16.70;56.90
1614;DHT22;800;48.824;9.346;2023-02-18T04:40:31;16.70;57.00
1614;DHT22;800;48.824;9.346;2023-02-18T04:42:57;16.60;57.10
1614;DHT22;800;48.824;9.346;2023-02-18T04:45:24;16.30;57.20
1614;DHT22;800;48.824;9.346;2023-02-18T04:47:50;16.30;57.50
1614;DHT22;800;48.824;9.346;2023-02-18T04:50:15;16.10;57.90
1614;DHT22;800;48.824;9.346;2023-02-18T04:52:41;16.00;58.10
1614;DHT22;800;48.824;9.346;2023-02-18T04:55:07;16.10;58.10
1614;DHT22;800;48.824;9.346;2023-02-18T04:57:32;16.00;58.00
1614;DHT22;800;48.824;9.346;2023-02-18T04:59:58;16.00;58.00
1614;DHT22;800;48.824;9.346;2023-02-18T05:02:23;16.10;57.80
1614;DHT22;800;48.824;9.346;2023-02-18T05:04:49;16.10;57.60
1614;DHT22;800;48.824;9.346;2023-02-18T05:07:14;16.10;57.40
1614;DHT22;800;48.824;9.346;2023-02-18T05:09:40;16.10;57.60
1614;DHT22;800;48.824;9.346;2023-02-18T05:12:06;16.30;57.40
1614;DHT22;800;48.824;9.346;2023-02-18T05:14:32;16.40;57.00
1614;DHT22;800;48.824;9.346;2023-02-18T05:16:57;16.60;56.60
1614;DHT22;800;48.824;9.346;2023-02-18T05:19:23;16.60;56.40
1614;DHT22;800;48.824;9.346;2023-02-18T05:21:49;16.60;56.40
1614;DHT22;800;48.824;9.346;2023-02-18T05:24:14;16.40;56.70
1614;DHT22;800;48.824;9.346;2023-02-18T05:26:40;16.50;56.90
1614;DHT22;800;48.824;9.346;2023-02-18T05:29:06;16.40;56.80
1614;DHT22;800;48.824;9.346;2023-02-18T05:31:31;16.50;56.70
1614;DHT22;800;48.824;9.346;2023-02-18T05:33:57;16.50;56.70
1614;DHT22;800;48.824;9.346;2023-02-18T05:36:22;16.50;56.90
1614;DHT22;800;48.824;9.346;2023-02-18T05:38:48;16.50;56.80
1614;DHT22;800;48.824;9.346;2023-02-18T05:41:13;16.50;56.70
1614;DHT22;800;48.824;9.346;2023-02-18T05:43:39;16.60;56.70
1614;DHT22;800;48.824;9.346;2023-02-18T05:46:23;16.60;56.70
1614;DHT22;800;48.824;9.346;2023-02-18T05:48:49;16.50;56.80
1614;DHT22;800;48.824;9.346;2023-02-18T05:51:15;16.50;56.70
1614;DHT22;800;48.824;9.346;2023-02-18T05:53:41;16.50;56.70
1614;DHT22;800;48.824;9.346;2023-02-18T05:56:06;16.40;57.00
1614;DHT22;800;48.824;9.346;2023-02-18T05:58:32;16.50;57.10
1614;DHT22;800;48.824;9.346;2023-02-18T06:00:57;16.50;56.90
1614;DHT22;800;48.824;9.346;2023-02-18T06:03:23;16.50;56.80
1614;DHT22;800;48.824;9.346;2023-02-18T06:05:50;16.40;57.00
1614;DHT22;800;48.824;9.346;2023-02-18T06:08:16;16.50;57.00
1614;DHT22;800;48.824;9.346;2023-02-18T06:10:41;16.50;56.90
1614;DHT22;800;48.824;9.346;2023-02-18T06:13:07;16.60;56.70
1614;DHT22;800;48.824;9.346;2023-02-18T06:15:32;16.60;56.60
1614;DHT22;800;48.824;9.346;2023-02-18T06:17:58;16.70;56.60
1614;DHT22;800;48.824;9.346;2023-02-18T06:20:23;16.60;56.60
1614;DHT22;800;48.824;9.346;2023-02-18T06:22:49;16.70;56.50
1614;DHT22;800;48.824;9.346;2023-02-18T06:25:15;16.70;56.50
1614;DHT22;800;48.824;9.346;2023-02-18T06:27:40;16.70;56.50
1614;DHT22;800;48.824;9.346;2023-02-18T06:30:06;16.60;56.50
1614;DHT22;800;48.824;9.346;2023-02-18T06:32:32;16.70;56.40
1614;DHT22;800;48.824;9.346;2023-02-18T06:34:57;16.70;56.60
1614;DHT22;800;48.824;9.346;2023-02-18T06:37:23;16.70;56.50
1614;DHT22;800;48.824;9.346;2023-02-18T06:39:48;16.80;56.30
1614;DHT22;800;48.824;9.346;2023-02-18T06:42:14;16.80;56.30
1614;DHT22;800;48.824;9.346;2023-02-18T06:44:40;16.60;56.40
1614;DHT22;800;48.824;9.346;2023-02-18T06:47:05;16.70;56.50
1614;DHT22;800;48.824;9.346;2023-02-18T06:49:31;16.60;56.60
1614;DHT22;800;48.824;9.346;2023-02-18T06:51:57;16.70;56.50
1614;DHT22;800;48.824;9.346;2023-02-18T06:54:22;16.70;56.40
1614;DHT22;800;48.824;9.346;2023-02-18T06:56:49;16.60;56.80
1614;DHT22;800;48.824;9.346;2023-02-18T06:59:15;16.70;56.70
1614;DHT22;800;48.824;9.346;2023-02-18T07:01:41;16.70;56.80
1614;DHT22;800;48.824;9.346;2023-02-18T07:04:06;16.70;56.70
1614;DHT22;800;48.824;9.346;2023-02-18T07:06:32;16.60;56.80
1614;DHT22;800;48.824;9.346;2023-02-18T07:08:57;16.60;57.00
1614;DHT22;800;48.824;9.346;2023-02-18T07:11:23;16.40;57.10
1614;DHT22;800;48.824;9.346;2023-02-18T07:13:48;16.00;57.90
1614;DHT22;800;48.824;9.346;2023-02-18T07:16:14;16.10;58.00
1614;DHT22;800;48.824;9.346;2023-02-18T07:18:40;15.90;58.30
1614;DHT22;800;48.824;9.346;2023-02-18T07:21:05;15.80;58.60
1614;DHT22;800;48.824;9.346;2023-02-18T07:23:31;15.80;58.60
1614;DHT22;800;48.824;9.346;2023-02-18T07:26:08;15.90;58.40
1614;DHT22;800;48.824;9.346;2023-02-18T07:28:34;15.60;58.50
1614;DHT22;800;48.824;9.346;2023-02-18T07:31:00;15.50;59.00
1614;DHT22;800;48.824;9.346;2023-02-18T07:33:26;15.50;59.20
1614;DHT22;800;48.824;9.346;2023-02-18T07:35:56;15.50;59.20
1614;DHT22;800;48.824;9.346;2023-02-18T07:38:23;15.50;59.30
1614;DHT22;800;48.824;9.346;2023-02-18T07:40:49;15.60;59.10
1614;DHT22;800;48.824;9.346;2023-02-18T07:43:15;15.40;59.30
1614;DHT22;800;48.824;9.346;2023-02-18T07:45:40;15.40;59.60
1614;DHT22;800;48.824;9.346;2023-02-18T07:48:06;15.50;59.70
1614;DHT22;800;48.824;9.346;2023-02-18T07:50:32;15.70;59.40
1614;DHT22;800;48.824;9.346;2023-02-18T07:53:11;15.80;59.30
1614;DHT22;800;48.824;9.346;2023-02-18T07:55:37;15.90;59.00
1614;DHT22;800;48.824;9.346;2023-02-18T07:58:16;16.00;58.90
1614;DHT22;800;48.824;9.346;2023-02-18T08:00:42;16.00;59.10
1614;DHT22;800;48.824;9.346;2023-02-18T08:03:07;15.90;59.10
1614;DHT22;800;48.824;9.346;2023-02-18T08:05:33;16.10;59.00
1614;DHT22;800;48.824;9.346;2023-02-18T08:07:58;16.20;58.70
1614;DHT22;800;48.824;9.346;2023-02-18T08:10:24;16.40;58.40
1614;DHT22;800;48.824;9.346;2023-02-18T08:12:50;16.40;58.20
1614;DHT22;800;48.824;9.346;2023-02-18T08:15:15;16.50;58.10
1614;DHT22;800;48.824;9.346;2023-02-18T08:17:41;16.50;58.00
1614;DHT22;800;48.824;9.346;2023-02-18T08:20:07;16.40;58.10
1614;DHT22;800;48.824;9.346;2023-02-18T08:22:33;16.30;58.20
1614;DHT22;800;48.824;9.346;2023-02-18T08:24:59;16.40;58.20
1614;DHT22;800;48.824;9.346;2023-02-18T08:27:24;16.40;57.90
1614;DHT22;800;48.824;9.346;2023-02-18T08:29:50;16.10;57.80
1614;DHT22;800;48.824;9.346;2023-02-18T08:32:26;15.90;58.00
1614;DHT22;800;48.824;9.346;2023-02-18T08:34:53;15.90;58.30
1614;DHT22;800;48.824;9.346;2023-02-18T08:37:18;16.00;58.10
1614;DHT22;800;48.824;9.346;2023-02-18T08:39:44;16.10;58.10
1614;DHT22;800;48.824;9.346;2023-02-18T08:42:10;16.00;57.70
1614;DHT22;800;48.824;9.346;2023-02-18T08:44:35;15.80;57.90
1614;DHT22;800;48.824;9.346;2023-02-18T08:47:01;15.90;58.30
1614;DHT22;800;48.824;9.346;2023-02-18T08:49:27;16.00;58.10
1614;DHT22;800;48.824;9.346;2023-02-18T08:51:52;16.10;57.80
1614;DHT22;800;48.824;9.346;2023-02-18T08:54:18;15.90;57.60
1614;DHT22;800;48.824;9.346;2023-02-18T08:56:44;16.00;57.60
1614;DHT22;800;48.824;9.346;2023-02-18T08:59:09;16.10;57.30
1614;DHT22;800;48.824;9.346;2023-02-18T09:01:35;16.30;57.10
1614;DHT22;800;48.824;9.346;2023-02-18T09:04:01;16.30;56.70
1614;DHT22;800;48.824;9.346;2023-02-18T09:06:27;16.40;56.60
1614;DHT22;800;48.824;9.346;2023-02-18T09:08:52;16.30;56.30
1614;DHT22;800;48.824;9.346;2023-02-18T09:11:19;16.20;56.60
1614;DHT22;800;48.824;9.346;2023-02-18T09:13:45;16.20;56.80
1614;DHT22;800;48.824;9.346;2023-02-18T09:16:16;16.50;56.50
1614;DHT22;800;48.824;9.346;2023-02-18T09:18:46;16.50;56.00
1614;DHT22;800;48.824;9.346;2023-02-18T09:21:13;16.50;56.30
1614;DHT22;800;48.824;9.346;2023-02-18T09:23:40;16.40;55.80
1614;DHT22;800;48.824;9.346;2023-02-18T09:26:08;16.60;56.00
1614;DHT22;800;48.824;9.346;2023-02-18T09:28:35;16.80;55.70
1614;DHT22;800;48.824;9.346;2023-02-18T09:31:09;16.60;55.50
1614;DHT22;800;48.824;9.346;2023-02-18T09:33:39;16.70;55.60
1614;DHT22;800;48.824;9.346;2023-02-18T09:36:06;16.70;55.00
1614;DHT22;800;48.824;9.346;2023-02-18T09:38:32;16.70;54.90
1614;DHT22;800;48.824;9.346;2023-02-18T09:40:59;16.60;54.40
1614;DHT22;800;48.824;9.346;2023-02-18T09:43:34;16.60;55.00
1614;DHT22;800;48.824;9.346;2023-02-18T09:46:01;16.40;54.90
1614;DHT22;800;48.824;9.346;2023-02-18T09:48:31;16.70;55.20
1614;DHT22;800;48.824;9.346;2023-02-18T09:50:58;16.60;54.70
1614;DHT22;800;48.824;9.346;2023-02-18T09:53:24;16.80;55.10
1614;DHT22;800;48.824;9.346;2023-02-18T09:55:52;16.90;54.20
1614;DHT22;800;48.824;9.346;2023-02-18T09:58:21;17.00;54.30
1614;DHT22;800;48.824;9.346;2023-02-18T10:00:56;17.10;54.20
1614;DHT22;800;48.824;9.346;2023-02-18T10:03:24;17.00;53.80
1614;DHT22;800;48.824;9.346;2023-02-18T10:06:03;17.10;53.80
1614;DHT22;800;48.824;9.346;2023-02-18T10:08:42;16.80;53.60
1614;DHT22;800;48.824;9.346;2023-02-18T10:11:14;17.00;54.10
1614;DHT22;800;48.824;9.346;2023-02-18T10:13:42;16.90;53.80
1614;DHT22;800;48.824;9.346;2023-02-18T10:16:09;17.00;53.80
1614;DHT22;800;48.824;9.346;2023-02-18T10:18:41;17.00;53.90
1614;DHT22;800;48.824;9.346;2023-02-18T10:21:29;17.20;53.90
1614;DHT22;800;48.824;9.346;2023-02-18T10:26:36;17.10;53.40
1614;DHT22;800;48.824;9.346;2023-02-18T10:29:03;17.20;53.90
1614;DHT22;800;48.824;9.346;2023-02-18T10:31:33;17.50;53.40
1614;DHT22;800;48.824;9.346;2023-02-18T10:40:16;17.40;53.00
1614;DHT22;800;48.824;9.346;2023-02-18T10:48:27;17.90;52.40
1614;DHT22;800;48.824;9.346;2023-02-18T10:50:58;17.80;52.20
1614;DHT22;800;48.824;9.346;2023-02-18T10:53:30;17.90;52.40
1614;DHT22;800;48.824;9.346;2023-02-18T10:55:57;18.00;52.40
1614;DHT22;800;48.824;9.346;2023-02-18T10:58:46;17.80;51.80
1614;DHT22;800;48.824;9.346;2023-02-18T11:01:15;17.80;52.00
1614;DHT22;800;48.824;9.346;2023-02-18T11:03:50;18.00;52.10
1614;DHT22;800;48.824;9.346;2023-02-18T11:06:38;18.10;52.00
1614;DHT22;800;48.824;9.346;2023-02-18T11:09:05;18.00;51.80
1614;DHT22;800;48.824;9.346;2023-02-18T11:11:35;18.00;52.00
1614;DHT22;800;48.824;9.346;2023-02-18T11:14:05;18.10;51.90
1614;DHT22;800;48.824;9.346;2023-02-18T11:16:42;18.30;51.50
1614;DHT22;800;48.824;9.346;2023-02-18T11:19:31;18.20;50.90
1614;DHT22;800;48.824;9.346;2023-02-18T11:24:39;18.30;51.30
1614;DHT22;800;48.824;9.346;2023-02-18T11:27:09;18.10;50.90
1614;DHT22;800;48.824;9.346;2023-02-18T11:29:36;18.10;51.00
1614;DHT22;800;48.824;9.346;2023-02-18T11:32:01;18.20;50.70
1614;DHT22;800;48.824;9.346;2023-02-18T11:34:30;18.30;50.60
1614;DHT22;800;48.824;9.346;2023-02-18T11:37:09;18.40;50.30
1614;DHT22;800;48.824;9.346;2023-02-18T11:39:42;18.60;50.00
1614;DHT22;800;48.824;9.346;2023-02-18T11:42:13;18.70;49.30
1614;DHT22;800;48.824;9.346;2023-02-18T11:44:42;18.50;49.20
1614;DHT22;800;48.824;9.346;2023-02-18T11:49:38;18.40;48.70
1614;DHT22;800;48.824;9.346;2023-02-18T11:52:17;18.40;48.80
1614;DHT22;800;48.824;9.346;2023-02-18T11:55:05;18.60;49.00
1614;DHT22;800;48.824;9.346;2023-02-18T11:57:34;18.50;48.30
1614;DHT22;800;48.824;9.346;2023-02-18T12:00:00;18.20;48.10
1614;DHT22;800;48.824;9.346;2023-02-18T12:02:35;18.20;48.70
1614;DHT22;800;48.824;9.346;2023-02-18T12:05:13;18.30;48.60
1614;DHT22;800;48.824;9.346;2023-02-18T12:07:44;18.60;48.50
1614;DHT22;800;48.824;9.346;2023-02-18T12:10:24;18.60;47.90
1614;DHT22;800;48.824;9.346;2023-02-18T12:13:06;18.60;47.90
1614;DHT22;800;48.824;9.346;2023-02-18T12:21:11;18.30;48.40
1614;DHT22;800;48.824;9.346;2023-02-18T12:23:57;18.20;48.20
1614;DHT22;800;48.824;9.346;2023-02-18T12:26:35;18.40;48.50
1614;DHT22;800;48.824;9.346;2023-02-18T12:29:10;18.60;48.30
1614;DHT22;800;48.824;9.346;2023-02-18T12:34:31;18.30;49.10
1614;DHT22;800;48.824;9.346;2023-02-18T12:37:30;18.10;48.60
1614;DHT22;800;48.824;9.346;2023-02-18T12:42:44;18.30;49.00
1614;DHT22;800;48.824;9.346;2023-02-18T12:48:03;18.00;49.30
1614;DHT22;800;48.824;9.346;2023-02-18T13:04:20;17.50;50.40
1614;DHT22;800;48.824;9.346;2023-02-18T13:07:13;17.50;49.30
1614;DHT22;800;48.824;9.346;2023-02-18T13:12:53;17.80;49.30
1614;DHT22;800;48.824;9.346;2023-02-18T13:18:00;17.60;49.30
1614;DHT22;800;48.824;9.346;2023-02-18T13:20:46;17.50;49.40
1614;DHT22;800;48.824;9.346;2023-02-18T13:23:18;17.50;49.00
1614;DHT22;800;48.824;9.346;2023-02-18T13:25:46;17.40;49.30
1614;DHT22;800;48.824;9.346;2023-02-18T13:28:22;17.30;49.90
1614;DHT22;800;48.824;9.346;2023-02-18T13:39:02;17.80;49.30
1614;DHT22;800;48.824;9.346;2023-02-18T13:41:38;17.90;49.30
1614;DHT22;800;48.824;9.346;2023-02-18T13:44:15;17.80;49.00
1614;DHT22;800;48.824;9.346;2023-02-18T13:46:57;17.70;48.80
1614;DHT22;800;48.824;9.346;2023-02-18T13:49:26;18.00;49.00
1614;DHT22;800;48.824;9.346;2023-02-18T13:51:57;18.00;48.40
1614;DHT22;800;48.824;9.346;2023-02-18T13:54:25;18.20;48.60
1614;DHT22;800;48.824;9.346;2023-02-18T13:56:52;18.20;48.10
1614;DHT22;800;48.824;9.346;2023-02-18T13:59:34;18.30;47.80
1614;DHT22;800;48.824;9.346;2023-02-18T14:10:02;18.50;47.40
1614;DHT22;800;48.824;9.346;2023-02-18T14:12:39;18.40;47.30
1614;DHT22;800;48.824;9.346;2023-02-18T14:20:47;18.30;47.20
1614;DHT22;800;48.824;9.346;2023-02-18T14:28:42;18.40;46.70
1614;DHT22;800;48.824;9.346;2023-02-18T14:37:05;18.10;47.00
1614;DHT22;800;48.824;9.346;2023-02-18T14:42:54;18.00;47.40
1614;DHT22;800;48.824;9.346;2023-02-18T14:45:45;18.00;47.60
1614;DHT22;800;48.824;9.346;2023-02-18T14:51:21;17.80;48.20
1614;DHT22;800;48.824;9.346;2023-02-18T14:53:47;17.50;48.50
1614;DHT22;800;48.824;9.346;2023-02-18T14:56:15;17.90;48.70
1614;DHT22;800;48.824;9.346;2023-02-18T14:58:47;17.70;48.40
1614;DHT22;800;48.824;9.346;2023-02-18T15:01:25;17.90;48.90
1614;DHT22;800;48.824;9.346;2023-02-18T15:03:53;18.10;48.50
1614;DHT22;800;48.824;9.346;2023-02-18T15:06:24;17.90;48.50
1614;DHT22;800;48.824;9.346;2023-02-18T15:08:50;17.90;48.60
1614;DHT22;800;48.824;9.346;2023-02-18T15:11:16;17.90;48.90
1614;DHT22;800;48.824;9.346;2023-02-18T15:13:44;17.80;48.80
1614;DHT22;800;48.824;9.346;2023-02-18T15:16:24;17.90;49.40
1614;DHT22;800;48.824;9.346;2023-02-18T15:18:57;17.90;49.20
1614;DHT22;800;48.824;9.346;2023-02-18T15:21:32;17.70;49.50
1614;DHT22;800;48.824;9.346;2023-02-18T15:24:08;17.70;49.30
1614;DHT22;800;48.824;9.346;2023-02-18T15:26:36;17.40;49.70
1614;DHT22;800;48.824;9.346;2023-02-18T15:29:23;17.30;49.50
1614;DHT22;800;48.824;9.346;2023-02-18T15:31:49;17.30;50.30
1614;DHT22;800;48.824;9.346;2023-02-18T15:36:51;17.10;49.90
1614;DHT22;800;48.824;9.346;2023-02-18T15:39:16;17.20;50.20
1614;DHT22;800;48.824;9.346;2023-02-18T15:41:42;17.40;50.10
1614;DHT22;800;48.824;9.346;2023-02-18T15:44:08;17.50;50.00
1614;DHT22;800;48.824;9.346;2023-02-18T15:46:40;17.40;50.50
1614;DHT22;800;48.824;9.346;2023-02-18T15:49:06;17.30;51.10
1614;DHT22;800;48.824;9.346;2023-02-18T15:51:33;17.60;50.40
1614;DHT22;800;48.824;9.346;2023-02-18T15:54:01;17.40;50.10
1614;DHT22;800;48.824;9.346;2023-02-18T15:56:34;17.30;50.70
1614;DHT22;800;48.824;9.346;2023-02-18T15:59:24;17.30;50.80
1614;DHT22;800;48.824;9.346;2023-02-18T16:01:56;17.50;50.80
1614;DHT22;800;48.824;9.346;2023-02-18T16:04:23;17.50;50.80
1614;DHT22;800;48.824;9.346;2023-02-18T16:06:51;17.70;50.40
1614;DHT22;800;48.824;9.346;2023-02-18T16:09:30;17.30;50.40
1614;DHT22;800;48.824;9.346;2023-02-18T16:11:58;17.30;50.90
1614;DHT22;800;48.824;9.346;2023-02-18T16:17:05;17.10;51.00
1614;DHT22;800;48.824;9.346;2023-02-18T16:19:31;17.30;51.10
1614;DHT22;800;48.824;9.346;2023-02-18T16:22:03;17.10;51.00
1614;DHT22;800;48.824;9.346;2023-02-18T16:24:30;16.90;51.40
1614;DHT22;800;48.824;9.346;2023-02-18T16:27:00;16.90;51.80
1614;DHT22;800;48.824;9.346;2023-02-18T16:29:32;16.90;51.80
1614;DHT22;800;48.824;9.346;2023-02-18T16:31:59;17.20;51.50
1614;DHT22;800;48.824;9.346;2023-02-18T16:34:24;17.20;51.50
1614;DHT22;800;48.824;9.346;2023-02-18T16:36:50;17.00;51.80
1614;DHT22;800;48.824;9.346;2023-02-18T16:39:34;17.10;51.70
1614;DHT22;800;48.824;9.346;2023-02-18T16:42:00;17.00;51.80
1614;DHT22;800;48.824;9.346;2023-02-18T16:44:26;17.10;52.40
1614;DHT22;800;48.824;9.346;2023-02-18T16:46:51;17.10;51.70
1614;DHT22;800;48.824;9.346;2023-02-18T16:49:17;17.00;51.60
1614;DHT22;800;48.824;9.346;2023-02-18T16:51:44;17.20;51.70
1614;DHT22;800;48.824;9.346;2023-02-18T16:54:11;17.30;51.30
1614;DHT22;800;48.824;9.346;2023-02-18T16:56:37;17.50;51.20
1614;DHT22;800;48.824;9.346;2023-02-18T16:59:03;17.50;50.80
1614;DHT22;800;48.824;9.346;2023-02-18T17:01:35;17.40;51.20
1614;DHT22;800;48.824;9.346;2023-02-18T17:04:08;17.20;51.30
1614;DHT22;800;48.824;9.346;2023-02-18T17:06:34;17.20;51.70
1614;DHT22;800;48.824;9.346;2023-02-18T17:09:00;17.20;51.70
1614;DHT22;800;48.824;9.346;2023-02-18T17:11:31;17.30;51.40
1614;DHT22;800;48.824;9.346;2023-02-18T17:13:57;17.50;51.30
1614;DHT22;800;48.824;9.346;2023-02-18T17:16:24;17.30;51.30
1614;DHT22;800;48.824;9.346;2023-02-18T17:18:50;17.20;51.50
1614;DHT22;800;48.824;9.346;2023-02-18T17:21:19;17.00;51.70
1614;DHT22;800;48.824;9.346;2023-02-18T17:23:45;17.00;52.20
1614;DHT22;800;48.824;9.346;2023-02-18T17:28:42;17.00;52.20
1614;DHT22;800;48.824;9.346;2023-02-18T17:31:16;16.70;52.50
1614;DHT22;800;48.824;9.346;2023-02-18T17:33:43;16.90;53.00
1614;DHT22;800;48.824;9.346;2023-02-18T17:36:10;17.20;52.60
1614;DHT22;800;48.824;9.346;2023-02-18T17:38:36;17.40;52.30
1614;DHT22;800;48.824;9.346;2023-02-18T17:41:01;17.50;52.00
1614;DHT22;800;48.824;9.346;2023-02-18T17:43:27;17.60;52.00
1614;DHT22;800;48.824;9.346;2023-02-18T17:45:54;17.70;52.00
1614;DHT22;800;48.824;9.346;2023-02-18T17:48:22;17.80;52.10
1614;DHT22;800;48.824;9.346;2023-02-18T17:50:49;17.90;51.90
1614;DHT22;800;48.824;9.346;2023-02-18T17:53:15;17.90;51.80
1614;DHT22;800;48.824;9.346;2023-02-18T17:55:42;18.10;51.60
1614;DHT22;800;48.824;9.346;2023-02-18T17:58:08;18.20;51.40
1614;DHT22;800;48.824;9.346;2023-02-18T18:00:37;18.20;51.50
1614;DHT22;800;48.824;9.346;2023-02-18T18:03:03;18.10;51.50
1614;DHT22;800;48.824;9.346;2023-02-18T18:05:34;18.00;51.50
1614;DHT22;800;48.824;9.346;2023-02-18T18:08:01;17.70;52.20
1614;DHT22;800;48.824;9.346;2023-02-18T18:10:29;17.50;52.70
1614;DHT22;800;48.824;9.346;2023-02-18T18:13:26;17.60;52.80
1614;DHT22;800;48.824;9.346;2023-02-18T18:15:53;17.60;52.80
1614;DHT22;800;48.824;9.346;2023-02-18T18:18:19;17.70;52.80
1614;DHT22;800;48.824;9.346;2023-02-18T18:20:47;17.60;52.50
1614;DHT22;800;48.824;9.346;2023-02-18T18:23:15;17.50;53.00
1614;DHT22;800;48.824;9.346;2023-02-18T18:25:46;17.40;53.30
1614;DHT22;800;48.824;9.346;2023-02-18T18:28:12;17.40;53.50
1614;DHT22;800;48.824;9.346;2023-02-18T18:30:40;17.40;53.50
1614;DHT22;800;48.824;9.346;2023-02-18T18:33:22;17.40;53.40
1614;DHT22;800;48.824;9.346;2023-02-18T18:35:50;17.50;53.50
1614;DHT22;800;48.824;9.346;2023-02-18T18:38:17;17.60;53.40
1614;DHT22;800;48.824;9.346;2023-02-18T18:40:44;17.60;53.20
1614;DHT22;800;48.824;9.346;2023-02-18T18:43:16;17.70;53.10
1614;DHT22;800;48.824;9.346;2023-02-18T18:45:42;17.60;53.30
1614;DHT22;800;48.824;9.346;2023-02-18T18:48:08;17.40;53.60
1614;DHT22;800;48.824;9.346;2023-02-18T18:50:34;17.20;54.10
1614;DHT22;800;48.824;9.346;2023-02-18T18:53:01;17.20;54.20
1614;DHT22;800;48.824;9.346;2023-02-18T18:55:35;17.20;54.20